Portada
METAR-TAF:

METAR-TAF

Aeroports :

Mary, Turkmenistan

latitud: 37-36-24N, longitud: 061-54-05E, altitud: 222 m

Observació

L'informe es va fer fa 58 minuts, a les 17:00 UTC
Vent 8 kt del Oest/Nord-Oest
Temperatura 32°C
Humitat 23%
Pressió 1010 hPa
Visibilitat: 6000 m
Escasses núvols a una alçada de 6000 ft

METAR: UTAM 261700Z 30008KT 6000 FEW060 32/08 Q1010 R88/CLRD70 NOSIG

Hora: 22:58 (17:58 UTC)

Pronòstic

L'informe es va fer fa 1 hora i 18 minuts, a les 16:40 UTC
Pronòstic vàlid del 26 a les 18 UTC al 27 a les 18 UTC
Vent 16 kt del Nord/Nord-Oest amb ràfegues de 26 kt
Visibilitat: 5000 m
Temporalment
l' 26 a les 18 UTC al 27 a les 00 UTC
Vent 20 kt del Oest/Nord-Oest
Visibilitat: 3000 m
torb baixa de pols
Temporalment
l' 27 a les 00 UTC al 27 a les 12 UTC
Vent 22 kt del Oest amb ràfegues de 32 kt
Visibilitat: 1500 m
torb alta de pols

TAF: UTAM 261640Z 2618/2718 33016G26KT 5000 NSC TEMPO 2618/2700 30020KT 3000 DRDU TEMPO 2700/2712 27022G32KT 1500 BLDU

Observacions i pronòstics meteorològics de més de 4000 aeroports (METAR i TAF).

Les estacions disponibles són els punts grocs i vermells al mapa.

Posi el ratolí al punt desitjat per veure el nom de l'estació.

Feu clic per veure les observacions i els pronòstics meteorològics.

Per canviar el mapa: feu clic els botons verds amb una creu de color negre per apropar; al botó verd amb un guió per allunyar la imatge; o en les fletxes verdes per a mapes adjacents.


METAR-TAF: